| time (UTC) | temp F | wind direction | speed MPH | gust MPH | rain 1hr in | rain 24hr in | rain mn in | humidity % | barometer mb |
| 20260507174445 | 56 | 255 | 8.0 | 19.0 | 0.00 | 0.03 | 0.02 | 48 | 1011.0 |
| 20260507173946 | 55 | 254 | 16.0 | 19.0 | 0.00 | 0.03 | 0.02 | 47 | 1011.0 |
| 20260507173444 | 55 | 285 | 5.0 | 11.0 | 0.00 | 0.03 | 0.02 | 45 | 1011.0 |
| 20260507172945 | 55 | 247 | 13.0 | 15.0 | 0.00 | 0.03 | 0.02 | 53 | 1011.1 |
| 20260507172444 | 53 | 281 | 10.0 | 16.0 | 0.00 | 0.03 | 0.02 | 51 | 1011.2 |
| 20260507171945 | 53 | 310 | 8.0 | 13.0 | 0.00 | 0.04 | 0.02 | 48 | 1011.3 |
| 20260507171444 | 54 | 292 | 9.0 | 15.0 | 0.00 | 0.04 | 0.02 | 48 | 1011.3 |
| 20260507170946 | 54 | 292 | 4.0 | 14.0 | 0.00 | 0.04 | 0.02 | 50 | 1011.4 |
| 20260507170444 | 53 | 275 | 8.0 | 11.0 | 0.00 | 0.04 | 0.02 | 52 | 1011.4 |
| 20260507165944 | 53 | 288 | 6.0 | 13.0 | 0.00 | 0.04 | 0.02 | 48 | 1011.7 |
| 20260507165444 | 53 | 254 | 9.0 | 16.0 | 0.00 | 0.04 | 0.02 | 48 | 1011.7 |
| 20260507164945 | 54 | 261 | 11.0 | 18.0 | 0.00 | 0.04 | 0.02 | 51 | 1011.7 |
| 20260507164444 | 53 | 271 | 18.0 | 19.0 | 0.01 | 0.04 | 0.02 | 48 | 1011.7 |
| 20260507164014 | 54 | 278 | 10.0 | 17.0 | 0.01 | 0.04 | 0.02 | 49 | 1011.8 |
| 20260507163946 | 54 | 255 | 6.0 | 16.0 | 0.01 | 0.04 | 0.02 | 48 | 1011.8 |
| 20260507163444 | 54 | 278 | 10.0 | 17.0 | 0.01 | 0.04 | 0.02 | 49 | 1011.8 |
| 20260507162946 | 53 | 251 | 11.0 | 17.0 | 0.01 | 0.04 | 0.02 | 49 | 1011.8 |
| 20260507162446 | 53 | 267 | 15.0 | 17.0 | 0.01 | 0.04 | 0.02 | 46 | 1011.9 |
| 20260507161944 | 53 | 261 | 9.0 | 12.0 | 0.01 | 0.04 | 0.02 | 52 | 1011.8 |
| 20260507160945 | 52 | 254 | 4.0 | 13.0 | 0.01 | 0.04 | 0.02 | 53 | 1012.0 |
| 20260507160444 | 52 | 285 | 7.0 | 13.0 | 0.01 | 0.04 | 0.02 | 54 | 1012.0 |
| 20260507155944 | 53 | 303 | 6.0 | 12.0 | 0.01 | 0.04 | 0.02 | 52 | 1012.1 |
| 20260507155444 | 53 | 329 | 6.0 | 12.0 | 0.01 | 0.04 | 0.02 | 54 | 1012.1 |
| 20260507154947 | 52 | 278 | 11.0 | 16.0 | 0.01 | 0.04 | 0.02 | 53 | 1012.1 |
| 20260507154444 | 52 | 309 | 8.0 | 17.0 | 0.00 | 0.03 | 0.01 | 51 | 1012.1 |
| 20260507153944 | 53 | 322 | 11.0 | 13.0 | 0.00 | 0.03 | 0.01 | 50 | 1012.1 |
| 20260507153444 | 53 | 274 | 9.0 | 15.0 | 0.00 | 0.03 | 0.01 | 54 | 1012.2 |
| 20260507152944 | 52 | 244 | 15.0 | 19.0 | 0.00 | 0.03 | 0.01 | 55 | 1012.2 |
| 20260507152444 | 52 | 255 | 9.0 | 16.0 | 0.00 | 0.03 | 0.01 | 52 | 1012.4 |
| 20260507151944 | 52 | 286 | 3.0 | 15.0 | 0.00 | 0.03 | 0.01 | 54 | 1012.4 |
| 20260507151444 | 51 | 265 | 15.0 | 18.0 | 0.00 | 0.03 | 0.01 | 55 | 1012.5 |
| 20260507150946 | 51 | 264 | 3.0 | 12.0 | 0.00 | 0.03 | 0.01 | 54 | 1012.6 |
| 20260507150445 | 51 | 279 | 12.0 | 16.0 | 0.00 | 0.03 | 0.01 | 54 | 1012.7 |
| 20260507145944 | 50 | 295 | 6.0 | 15.0 | 0.00 | 0.03 | 0.01 | 57 | 1012.7 |
| 20260507145444 | 51 | 247 | 13.0 | 14.0 | 0.00 | 0.03 | 0.01 | 54 | 1012.8 |
| 20260507144945 | 51 | 247 | 7.0 | 13.0 | 0.00 | 0.03 | 0.01 | 57 | 1012.8 |
| 20260507144446 | 51 | 243 | 11.0 | 11.0 | 0.00 | 0.03 | 0.01 | 61 | 1012.9 |
| 20260507143944 | 50 | 261 | 9.0 | 17.0 | 0.00 | 0.03 | 0.01 | 58 | 1013.0 |
| 20260507143444 | 51 | 251 | 9.0 | 16.0 | 0.00 | 0.03 | 0.01 | 60 | 1013.0 |
| 20260507142945 | 50 | 261 | 7.0 | 14.0 | 0.00 | 0.03 | 0.01 | 58 | 1013.1 |
| 20260507142444 | 51 | 302 | 5.0 | 12.0 | 0.00 | 0.03 | 0.01 | 58 | 1013.0 |
| 20260507141944 | 50 | 317 | 8.0 | 16.0 | 0.00 | 0.03 | 0.01 | 55 | 1013.1 |
| 20260507141444 | 50 | 277 | 8.0 | 11.0 | 0.00 | 0.03 | 0.01 | 62 | 1013.3 |
| 20260507140944 | 50 | 220 | 9.0 | 12.0 | 0.00 | 0.03 | 0.01 | 61 | 1013.3 |
| 20260507140444 | 49 | 257 | 8.0 | 13.0 | 0.00 | 0.03 | 0.01 | 61 | 1013.4 |
| 20260507135944 | 49 | 220 | 9.0 | 11.0 | 0.00 | 0.03 | 0.01 | 61 | 1013.3 |
| 20260507135444 | 49 | 226 | 10.0 | 11.0 | 0.00 | 0.03 | 0.01 | 62 | 1013.4 |
| 20260507134944 | 49 | 272 | 5.0 | 11.0 | 0.00 | 0.03 | 0.01 | 61 | 1013.4 |
| 20260507134445 | 49 | 248 | 9.0 | 12.0 | 0.00 | 0.03 | 0.01 | 63 | 1013.5 |
| 20260507133944 | 48 | 255 | 3.0 | 8.0 | 0.00 | 0.03 | 0.01 | 63 | 1013.5 |
| 20260507133444 | 48 | 260 | 8.0 | 11.0 | 0.00 | 0.03 | 0.01 | 65 | 1013.4 |
| 20260507132945 | 48 | 271 | 6.0 | 7.0 | 0.00 | 0.03 | 0.01 | 64 | 1013.4 |
| 20260507132444 | 48 | 241 | 6.0 | 9.0 | 0.00 | 0.03 | 0.01 | 67 | 1013.4 |
| 20260507131945 | 47 | 262 | 1.0 | 9.0 | 0.00 | 0.04 | 0.01 | 68 | 1013.4 |
| 20260507131444 | 47 | 278 | 4.0 | 7.0 | 0.00 | 0.04 | 0.01 | 68 | 1013.4 |
| 20260507130944 | 47 | 244 | 4.0 | 7.0 | 0.00 | 0.04 | 0.01 | 67 | 1013.3 |
| 20260507130445 | 47 | 230 | 5.0 | 8.0 | 0.00 | 0.04 | 0.01 | 71 | 1013.3 |
| 20260507125944 | 46 | 236 | 3.0 | 8.0 | 0.00 | 0.04 | 0.01 | 70 | 1013.4 |
| 20260507125444 | 46 | 229 | 4.0 | 7.0 | 0.00 | 0.04 | 0.01 | 71 | 1013.4 |
| 20260507124944 | 45 | 217 | 4.0 | 7.0 | 0.00 | 0.04 | 0.01 | 72 | 1013.4 |
| 20260507124444 | 45 | 196 | 6.0 | 6.0 | 0.00 | 0.04 | 0.01 | 74 | 1013.5 |
| 20260507123945 | 45 | 225 | 4.0 | 6.0 | 0.00 | 0.04 | 0.01 | 77 | 1013.4 |
| 20260507123444 | 44 | 201 | 5.0 | 5.0 | 0.00 | 0.04 | 0.01 | 79 | 1013.5 |
| 20260507122944 | 44 | 182 | 4.0 | 4.0 | 0.00 | 0.04 | 0.01 | 81 | 1013.5 |
| 20260507122444 | 43 | 254 | 3.0 | 4.0 | 0.00 | 0.04 | 0.01 | 83 | 1013.4 |
| 20260507121944 | 43 | 213 | 2.0 | 3.0 | 0.00 | 0.05 | 0.01 | 85 | 1013.4 |
| 20260507121446 | 42 | 187 | 2.0 | 3.0 | 0.00 | 0.05 | 0.01 | 88 | 1013.3 |
| 20260507120945 | 42 | 213 | 1.0 | 3.0 | 0.00 | 0.05 | 0.01 | 90 | 1013.4 |
| 20260507120444 | 41 | 185 | 2.0 | 3.0 | 0.00 | 0.05 | 0.01 | 91 | 1013.4 |
| 20260507115945 | 41 | 187 | 2.0 | 2.0 | 0.00 | 0.05 | 0.01 | 92 | 1013.3 |
| 20260507115446 | 40 | 191 | 1.0 | 2.0 | 0.00 | 0.05 | 0.01 | 92 | 1013.4 |
| 20260507114945 | 39 | 199 | 2.0 | 2.0 | 0.00 | 0.05 | 0.01 | 93 | 1013.4 |
| 20260507114446 | 39 | 174 | 1.0 | 1.0 | 0.00 | 0.05 | 0.01 | 94 | 1013.4 |
| 20260507113944 | 39 | 185 | 0.0 | 1.0 | 0.00 | 0.05 | 0.01 | 94 | 1013.3 |
| 20260507113445 | 38 | 188 | 1.0 | 2.0 | 0.00 | 0.05 | 0.01 | 94 | 1013.1 |
| 20260507112945 | 37 | 229 | 0.0 | 0.0 | 0.00 | 0.05 | 0.01 | 94 | 1013.1 |
| 20260507112445 | 37 | 229 | 0.0 | 0.0 | 0.00 | 0.05 | 0.01 | 94 | 1013.0 |
| 20260507111944 | 36 | 234 | 0.0 | 2.0 | 0.00 | 0.05 | 0.01 | 94 | 1013.0 |
| 20260507111445 | 36 | 191 | 1.0 | 3.0 | 0.00 | 0.05 | 0.01 | 94 | 1012.9 |
| 20260507110944 | 36 | 185 | 3.0 | 3.0 | 0.00 | 0.05 | 0.01 | 94 | 1012.8 |
| 20260507110445 | 35 | 196 | 2.0 | 2.0 | 0.00 | 0.05 | 0.01 | 94 | 1012.8 |
| 20260507110015 | 35 | 265 | 0.0 | 2.0 | 0.00 | 0.05 | 0.01 | 95 | 1012.8 |
| 20260507105944 | 35 | 265 | 0.0 | 2.0 | 0.00 | 0.05 | 0.01 | 95 | 1012.8 |
| 20260507105445 | 35 | 274 | 2.0 | 2.0 | 0.00 | 0.05 | 0.01 | 95 | 1012.8 |
| 20260507104945 | 35 | 279 | 2.0 | 2.0 | 0.00 | 0.05 | 0.01 | 95 | 1012.7 |
| 20260507104445 | 35 | 302 | 1.0 | 2.0 | 0.00 | 0.05 | 0.01 | 95 | 1012.8 |
| 20260507103947 | 35 | 296 | 1.0 | 2.0 | 0.00 | 0.05 | 0.01 | 95 | 1012.8 |
| 20260507103444 | 34 | 316 | 2.0 | 3.0 | 0.00 | 0.05 | 0.01 | 95 | 1012.7 |
| 20260507102945 | 34 | 298 | 3.0 | 3.0 | 0.00 | 0.05 | 0.01 | 95 | 1012.7 |
| 20260507102445 | 34 | 302 | 2.0 | 2.0 | 0.00 | 0.05 | 0.01 | 95 | 1012.7 |
| 20260507101944 | 34 | 331 | 3.0 | 3.0 | 0.00 | 0.06 | 0.01 | 95 | 1012.7 |
| 20260507101444 | 35 | 295 | 3.0 | 4.0 | 0.00 | 0.06 | 0.01 | 93 | 1012.7 |
| 20260507100945 | 35 | 312 | 3.0 | 3.0 | 0.00 | 0.06 | 0.01 | 93 | 1012.7 |
| 20260507100445 | 35 | 300 | 2.0 | 2.0 | 0.00 | 0.06 | 0.01 | 93 | 1012.7 |
| 20260507095945 | 35 | 174 | 0.0 | 0.0 | 0.00 | 0.06 | 0.01 | 92 | 1012.8 |
| 20260507095445 | 35 | 174 | 0.0 | 0.0 | 0.00 | 0.06 | 0.01 | 90 | 1012.8 |
| 20260507094945 | 35 | 174 | 0.0 | 0.0 | 0.00 | 0.06 | 0.01 | 89 | 1012.8 |
| 20260507094446 | 35 | 174 | 0.0 | 1.0 | 0.00 | 0.06 | 0.01 | 89 | 1012.9 |
| 20260507093945 | 36 | 272 | 1.0 | 1.0 | 0.00 | 0.06 | 0.01 | 88 | 1012.9 |
| 20260507093445 | 36 | 286 | 0.0 | 0.0 | 0.00 | 0.06 | 0.01 | 88 | 1012.8 |
| 20260507092945 | 36 | 324 | 0.0 | 1.0 | 0.00 | 0.06 | 0.01 | 88 | 1012.9 |
| 20260507092445 | 36 | 285 | 0.0 | 0.0 | 0.00 | 0.06 | 0.01 | 88 | 1012.9 |
| 20260507091944 | 37 | 268 | 0.0 | 1.0 | 0.00 | 0.07 | 0.01 | 87 | 1012.9 |
| 20260507091445 | 37 | 270 | 1.0 | 1.0 | 0.00 | 0.07 | 0.01 | 86 | 1012.9 |
| 20260507090951 | 37 | 240 | 0.0 | 1.0 | 0.00 | 0.07 | 0.01 | 86 | 1013.0 |
| 20260507090447 | 37 | 260 | 1.0 | 1.0 | 0.00 | 0.07 | 0.01 | 86 | 1013.0 |
| 20260507085945 | 37 | 267 | 1.0 | 2.0 | 0.00 | 0.07 | 0.01 | 86 | 1013.0 |
| 20260507085445 | 37 | 257 | 1.0 | 2.0 | 0.00 | 0.07 | 0.01 | 85 | 1012.9 |
| 20260507084945 | 37 | 203 | 1.0 | 1.0 | 0.00 | 0.07 | 0.01 | 85 | 1012.9 |
| 20260507084445 | 38 | 286 | 1.0 | 2.0 | 0.00 | 0.07 | 0.01 | 86 | 1012.9 |
| 20260507083945 | 38 | 336 | 2.0 | 2.0 | 0.00 | 0.07 | 0.01 | 85 | 1012.9 |
| 20260507083448 | 38 | 289 | 0.0 | 0.0 | 0.00 | 0.07 | 0.01 | 83 | 1012.9 |
| 20260507082945 | 39 | 289 | 0.0 | 0.0 | 0.00 | 0.07 | 0.01 | 82 | 1012.9 |
| 20260507082445 | 39 | 289 | 0.0 | 0.0 | 0.00 | 0.07 | 0.01 | 82 | 1012.9 |
| 20260507081945 | 39 | 289 | 0.0 | 0.0 | 0.00 | 0.07 | 0.01 | 82 | 1012.9 |
| 20260507081445 | 40 | 289 | 0.0 | 0.0 | 0.00 | 0.07 | 0.01 | 81 | 1013.0 |
| 20260507080945 | 40 | 289 | 0.0 | 0.0 | 0.00 | 0.07 | 0.01 | 81 | 1013.0 |
| 20260507080445 | 40 | 289 | 0.0 | 0.0 | 0.00 | 0.07 | 0.01 | 79 | 1013.0 |
| 20260507075945 | 40 | 289 | 0.0 | 0.0 | 0.00 | 0.07 | 0.01 | 78 | 1013.0 |
| 20260507075445 | 41 | 289 | 0.0 | 0.0 | 0.00 | 0.07 | 0.01 | 78 | 1013.0 |
| 20260507074945 | 41 | 289 | 0.0 | 0.0 | 0.00 | 0.07 | 0.01 | 77 | 1013.0 |
| 20260507074445 | 42 | 289 | 0.0 | 0.0 | 0.00 | 0.07 | 0.01 | 76 | 1013.0 |
| 20260507073945 | 41 | 289 | 0.0 | 0.0 | 0.00 | 0.07 | 0.01 | 76 | 1013.0 |
| 20260507073447 | 41 | 289 | 0.0 | 0.0 | 0.00 | 0.07 | 0.01 | 77 | 1013.0 |
| 20260507072946 | 42 | 289 | 0.0 | 1.0 | 0.00 | 0.07 | 0.01 | 78 | 1013.0 |
| 20260507072447 | 42 | 262 | 1.0 | 2.0 | 0.00 | 0.07 | 0.01 | 78 | 1013.1 |
| 20260507071945 | 42 | 226 | 1.0 | 2.0 | 0.00 | 0.09 | 0.01 | 77 | 1013.0 |
| 20260507071445 | 42 | 240 | 2.0 | 2.0 | 0.00 | 0.09 | 0.01 | 75 | 1013.1 |
| 20260507070945 | 43 | 243 | 2.0 | 3.0 | 0.00 | 0.09 | 0.01 | 72 | 1013.1 |
| 20260507070445 | 43 | 262 | 2.0 | 3.0 | 0.00 | 0.09 | 0.01 | 71 | 1013.1 |
| 20260507065945 | 43 | 289 | 2.0 | 3.0 | 0.00 | 0.09 | 0.01 | 71 | 1012.9 |
| 20260507065445 | 43 | 302 | 1.0 | 2.0 | 0.00 | 0.09 | 0.01 | 71 | 1013.0 |
| 20260507064945 | 43 | 303 | 2.0 | 2.0 | 0.00 | 0.09 | 0.01 | 71 | 1012.9 |
| 20260507064446 | 43 | 248 | 0.0 | 0.0 | 0.00 | 0.09 | 0.01 | 71 | 1013.0 |
| 20260507063945 | 44 | 248 | 0.0 | 0.0 | 0.00 | 0.09 | 0.01 | 70 | 1012.9 |
| 20260507063445 | 44 | 248 | 0.0 | 0.0 | 0.00 | 0.09 | 0.01 | 71 | 1013.0 |
| 20260507062945 | 44 | 248 | 0.0 | 2.0 | 0.00 | 0.09 | 0.01 | 70 | 1013.0 |
| 20260507062445 | 44 | 289 | 2.0 | 2.0 | 0.00 | 0.09 | 0.01 | 69 | 1013.1 |
| 20260507061945 | 44 | 292 | 0.0 | 4.0 | 0.00 | 0.11 | 0.01 | 69 | 1013.1 |
| 20260507061445 | 44 | 286 | 0.0 | 3.0 | 0.00 | 0.11 | 0.01 | 68 | 1013.1 |
| 20260507060945 | 44 | 309 | 0.0 | 2.0 | 0.00 | 0.11 | 0.01 | 68 | 1013.3 |
| 20260507060449 | 44 | 316 | 2.0 | 5.0 | 0.00 | 0.11 | 0.01 | 68 | 1013.5 |
| 20260507055948 | 44 | 292 | 2.0 | 6.0 | 0.00 | 0.11 | 0.01 | 68 | 1013.5 |
| 20260507055445 | 44 | 330 | 2.0 | 3.0 | 0.00 | 0.11 | 0.01 | 68 | 1013.6 |
| 20260507054946 | 44 | 286 | 1.0 | 5.0 | 0.00 | 0.11 | 0.01 | 69 | 1013.7 |
| 20260507054446 | 44 | 275 | 3.0 | 4.0 | 0.00 | 0.11 | 0.01 | 68 | 1013.7 |
| 20260507053945 | 44 | 281 | 1.0 | 5.0 | 0.00 | 0.11 | 0.01 | 68 | 1013.7 |
| 20260507053445 | 44 | 312 | 4.0 | 5.0 | 0.01 | 0.11 | 0.01 | 68 | 1013.7 |
| 20260507052945 | 44 | 343 | 1.0 | 3.0 | 0.01 | 0.11 | 0.01 | 69 | 1013.7 |
| 20260507052445 | 45 | 305 | 2.0 | 3.0 | 0.01 | 0.11 | 0.01 | 69 | 1013.7 |
| 20260507051945 | 45 | 341 | 0.0 | 3.0 | 0.01 | 0.14 | 0.01 | 68 | 1013.8 |
| 20260507051446 | 45 | 296 | 0.0 | 2.0 | 0.01 | 0.14 | 0.01 | 68 | 1013.8 |
| 20260507050945 | 45 | 281 | 3.0 | 3.0 | 0.01 | 0.14 | 0.01 | 68 | 1013.7 |
| 20260507050445 | 45 | 347 | 3.0 | 4.0 | 0.01 | 0.14 | 0.01 | 67 | 1013.7 |
| 20260507045945 | 45 | 330 | 0.0 | 0.0 | 0.01 | 0.14 | 0.01 | 67 | 1013.7 |
| 20260507045445 | 45 | 307 | 0.0 | 3.0 | 0.01 | 0.14 | 0.01 | 67 | 1013.8 |
| 20260507044946 | 45 | 277 | 1.0 | 2.0 | 0.01 | 0.14 | 0.01 | 67 | 1013.8 |
| 20260507044445 | 45 | 347 | 1.0 | 4.0 | 0.01 | 0.14 | 0.01 | 68 | 1013.8 |
| 20260507043945 | 45 | 323 | 1.0 | 7.0 | 0.01 | 0.14 | 0.01 | 67 | 1013.8 |
| 20260507043445 | 45 | 329 | 5.0 | 5.0 | 0.00 | 0.13 | 0.00 | 66 | 1013.7 |
| 20260507042946 | 45 | 267 | 0.0 | 3.0 | 0.00 | 0.13 | 0.00 | 67 | 1013.8 |
| 20260507042446 | 45 | 323 | 3.0 | 4.0 | 0.00 | 0.13 | 0.00 | 67 | 1013.7 |
| 20260507041946 | 45 | 282 | 4.0 | 4.0 | 0.00 | 0.13 | 0.00 | 68 | 1013.7 |
| 20260507041445 | 45 | 271 | 2.0 | 3.0 | 0.00 | 0.13 | 0.00 | 68 | 1013.7 |
| 20260507040945 | 46 | 306 | 2.0 | 5.0 | 0.00 | 0.13 | 0.00 | 69 | 1013.7 |
| 20260507040446 | 46 | 291 | 5.0 | 5.0 | 0.00 | 0.13 | 0.00 | 69 | 1013.8 |
| 20260507035945 | 46 | 292 | 2.0 | 6.0 | 0.00 | 0.13 | 0.00 | 68 | 1013.7 |
| 20260507035447 | 46 | 324 | 3.0 | 4.0 | 0.00 | 0.13 | 0.13 | 67 | 1013.5 |
| 20260507034946 | 46 | 289 | 1.0 | 4.0 | 0.00 | 0.13 | 0.13 | 67 | 1013.5 |
| 20260507034446 | 46 | 222 | 0.0 | 4.0 | 0.00 | 0.13 | 0.13 | 66 | 1013.5 |
| 20260507033946 | 46 | 295 | 3.0 | 5.0 | 0.00 | 0.13 | 0.13 | 67 | 1013.4 |
| 20260507033445 | 46 | 324 | 0.0 | 2.0 | 0.00 | 0.13 | 0.13 | 67 | 1013.4 |
| 20260507032945 | 46 | 341 | 0.0 | 3.0 | 0.00 | 0.13 | 0.13 | 67 | 1013.4 |
| 20260507032446 | 46 | 343 | 3.0 | 3.0 | 0.00 | 0.13 | 0.13 | 67 | 1013.4 |
| 20260507031945 | 46 | 29 | 3.0 | 3.0 | 0.00 | 0.13 | 0.13 | 67 | 1013.4 |
| 20260507031446 | 46 | 340 | 2.0 | 5.0 | 0.00 | 0.13 | 0.13 | 67 | 1013.4 |
| 20260507030945 | 46 | 358 | 0.0 | 4.0 | 0.00 | 0.13 | 0.13 | 67 | 1013.5 |
| 20260507030446 | 46 | 14 | 3.0 | 5.0 | 0.00 | 0.13 | 0.13 | 66 | 1013.3 |
| 20260507025947 | 46 | 355 | 2.0 | 5.0 | 0.00 | 0.13 | 0.13 | 65 | 1013.3 |
| 20260507025446 | 47 | 336 | 2.0 | 4.0 | 0.00 | 0.13 | 0.13 | 66 | 1013.4 |
| 20260507024946 | 47 | 338 | 3.0 | 4.0 | 0.00 | 0.13 | 0.13 | 65 | 1013.4 |
| 20260507024446 | 47 | 345 | 2.0 | 8.0 | 0.00 | 0.13 | 0.13 | 64 | 1013.0 |
| 20260507023945 | 47 | 336 | 8.0 | 8.0 | 0.00 | 0.13 | 0.13 | 64 | 1013.1 |
| 20260507023446 | 47 | 14 | 1.0 | 6.0 | 0.00 | 0.13 | 0.13 | 64 | 1013.1 |
| 20260507022946 | 47 | 338 | 6.0 | 9.0 | 0.00 | 0.13 | 0.13 | 65 | 1013.1 |
| 20260507022446 | 47 | 2 | 5.0 | 10.0 | 0.00 | 0.13 | 0.13 | 65 | 1012.9 |
| 20260507021946 | 47 | 343 | 7.0 | 10.0 | 0.00 | 0.13 | 0.13 | 66 | 1012.9 |
| 20260507021446 | 47 | 337 | 8.0 | 11.0 | 0.00 | 0.13 | 0.13 | 68 | 1012.9 |
| 20260507020946 | 47 | 8 | 6.0 | 9.0 | 0.00 | 0.13 | 0.13 | 67 | 1012.7 |
| 20260507020446 | 47 | 354 | 9.0 | 11.0 | 0.00 | 0.13 | 0.13 | 67 | 1012.8 |
| 20260507015946 | 47 | 347 | 4.0 | 8.0 | 0.00 | 0.13 | 0.13 | 68 | 1012.9 |
| 20260507015446 | 47 | 340 | 6.0 | 8.0 | 0.00 | 0.13 | 0.13 | 68 | 1013.0 |
| 20260507014946 | 47 | 15 | 4.0 | 9.0 | 0.00 | 0.13 | 0.13 | 68 | 1012.8 |
| 20260507014446 | 47 | 2 | 6.0 | 11.0 | 0.00 | 0.13 | 0.13 | 67 | 1012.8 |
| 20260507013946 | 47 | 12 | 4.0 | 10.0 | 0.00 | 0.13 | 0.13 | 68 | 1012.7 |
| 20260507013446 | 48 | 8 | 3.0 | 7.0 | 0.00 | 0.13 | 0.13 | 71 | 1012.8 |
| 20260507012946 | 48 | 11 | 5.0 | 6.0 | 0.00 | 0.13 | 0.13 | 72 | 1012.9 |
| 20260507012446 | 48 | 347 | 2.0 | 5.0 | 0.00 | 0.13 | 0.13 | 71 | 1013.0 |
| 20260507011946 | 48 | 354 | 4.0 | 4.0 | 0.00 | 0.13 | 0.13 | 71 | 1013.3 |
| 20260507011447 | 49 | 313 | 3.0 | 6.0 | 0.00 | 0.13 | 0.13 | 70 | 1013.4 |
| 20260507010946 | 49 | 340 | 4.0 | 6.0 | 0.00 | 0.13 | 0.13 | 69 | 1013.4 |
| 20260507010446 | 49 | 295 | 2.0 | 9.0 | 0.00 | 0.13 | 0.13 | 68 | 1013.3 |
| 20260507005948 | 49 | 341 | 4.0 | 10.0 | 0.00 | 0.13 | 0.13 | 68 | 1013.3 |
| 20260507005446 | 49 | 322 | 3.0 | 8.0 | 0.00 | 0.13 | 0.13 | 69 | 1013.4 |
| 20260507004946 | 49 | 315 | 5.0 | 7.0 | 0.00 | 0.13 | 0.13 | 70 | 1013.1 |
| 20260507004446 | 49 | 306 | 6.0 | 10.0 | 0.00 | 0.13 | 0.13 | 70 | 1013.3 |
| 20260507003946 | 49 | 288 | 3.0 | 9.0 | 0.00 | 0.13 | 0.13 | 70 | 1013.0 |
| 20260507003449 | 49 | 310 | 9.0 | 9.0 | 0.00 | 0.13 | 0.13 | 72 | 1013.0 |
| 20260507002946 | 49 | 307 | 4.0 | 11.0 | 0.00 | 0.13 | 0.13 | 73 | 1013.0 |
| 20260507002446 | 49 | 315 | 8.0 | 9.0 | 0.00 | 0.13 | 0.13 | 73 | 1013.1 |
| 20260507001946 | 50 | 319 | 5.0 | 9.0 | 0.00 | 0.13 | 0.13 | 73 | 1012.9 |
| 20260507001446 | 50 | 312 | 6.0 | 8.0 | 0.00 | 0.13 | 0.13 | 74 | 1012.9 |
| 20260507000946 | 50 | 316 | 7.0 | 7.0 | 0.00 | 0.13 | 0.13 | 74 | 1012.7 |
| 20260507000446 | 50 | 315 | 5.0 | 13.0 | 0.00 | 0.13 | 0.13 | 74 | 1012.6 |
| 20260506235946 | 50 | 284 | 4.0 | 10.0 | 0.00 | 0.13 | 0.13 | 76 | 1012.6 |
| 20260506235446 | 50 | 296 | 5.0 | 10.0 | 0.00 | 0.13 | 0.13 | 76 | 1012.6 |
| 20260506234946 | 50 | 322 | 2.0 | 6.0 | 0.00 | 0.13 | 0.13 | 77 | 1012.4 |
| 20260506234446 | 50 | 326 | 6.0 | 7.0 | 0.00 | 0.13 | 0.13 | 78 | 1012.3 |
| 20260506233946 | 50 | 274 | 5.0 | 8.0 | 0.00 | 0.13 | 0.13 | 78 | 1012.2 |
| 20260506233446 | 50 | 347 | 6.0 | 7.0 | 0.00 | 0.13 | 0.13 | 79 | 1012.3 |
| 20260506232946 | 50 | 341 | 5.0 | 8.0 | 0.00 | 0.13 | 0.13 | 78 | 1012.3 |
| 20260506232446 | 50 | 293 | 4.0 | 8.0 | 0.00 | 0.13 | 0.13 | 78 | 1012.2 |
| 20260506231947 | 50 | 322 | 6.0 | 9.0 | 0.00 | 0.13 | 0.13 | 78 | 1012.1 |
| 20260506231448 | 50 | 305 | 3.0 | 7.0 | 0.00 | 0.13 | 0.13 | 78 | 1011.9 |
| 20260506230946 | 50 | 313 | 6.0 | 10.0 | 0.00 | 0.13 | 0.13 | 78 | 1011.9 |
| 20260506230446 | 50 | 282 | 5.0 | 8.0 | 0.00 | 0.13 | 0.13 | 78 | 1011.9 |
| 20260506225946 | 50 | 291 | 8.0 | 9.0 | 0.00 | 0.13 | 0.13 | 77 | 1011.9 |
| 20260506225446 | 50 | 286 | 6.0 | 9.0 | 0.00 | 0.13 | 0.13 | 78 | 1011.9 |
| 20260506224946 | 50 | 299 | 4.0 | 10.0 | 0.00 | 0.13 | 0.13 | 78 | 1011.8 |
| 20260506224446 | 50 | 288 | 8.0 | 9.0 | 0.00 | 0.13 | 0.13 | 80 | 1011.8 |
| 20260506223946 | 50 | 298 | 6.0 | 9.0 | 0.00 | 0.13 | 0.13 | 80 | 1011.8 |
| 20260506223446 | 51 | 282 | 3.0 | 7.0 | 0.00 | 0.13 | 0.13 | 81 | 1011.7 |
| 20260506222946 | 51 | 281 | 5.0 | 7.0 | 0.00 | 0.13 | 0.13 | 81 | 1011.8 |
| 20260506222446 | 50 | 281 | 4.0 | 4.0 | 0.00 | 0.13 | 0.13 | 81 | 1011.7 |
| 20260506221946 | 50 | 312 | 3.0 | 7.0 | 0.00 | 0.13 | 0.13 | 81 | 1011.6 |
| 20260506221447 | 50 | 286 | 1.0 | 6.0 | 0.00 | 0.13 | 0.13 | 82 | 1011.4 |
| 20260506220946 | 50 | 271 | 3.0 | 7.0 | 0.00 | 0.13 | 0.13 | 82 | 1011.6 |
| 20260506220446 | 50 | 310 | 1.0 | 7.0 | 0.00 | 0.13 | 0.13 | 82 | 1011.7 |
| 20260506215946 | 50 | 313 | 7.0 | 9.0 | 0.00 | 0.13 | 0.13 | 83 | 1011.8 |
| 20260506215447 | 50 | 285 | 5.0 | 6.0 | 0.00 | 0.13 | 0.13 | 83 | 1011.7 |
| 20260506214946 | 50 | 261 | 3.0 | 8.0 | 0.01 | 0.13 | 0.13 | 83 | 1011.4 |
| 20260506214446 | 51 | 309 | 6.0 | 6.0 | 0.01 | 0.13 | 0.13 | 83 | 1011.2 |
| 20260506213946 | 50 | 319 | 3.0 | 5.0 | 0.01 | 0.13 | 0.13 | 83 | 1011.0 |
| 20260506212946 | 50 | 352 | 4.0 | 8.0 | 0.01 | 0.13 | 0.13 | 82 | 1011.0 |
| 20260506212446 | 50 | 291 | 5.0 | 8.0 | 0.01 | 0.13 | 0.13 | 82 | 1010.9 |
| 20260506211946 | 50 | 331 | 6.0 | 12.0 | 0.01 | 0.13 | 0.13 | 83 | 1010.9 |
| 20260506211447 | 50 | 307 | 6.0 | 13.0 | 0.01 | 0.13 | 0.13 | 83 | 1011.0 |
| 20260506210946 | 50 | 15 | 4.0 | 10.0 | 0.01 | 0.13 | 0.13 | 83 | 1010.9 |
| 20260506210446 | 50 | 324 | 5.0 | 9.0 | 0.01 | 0.13 | 0.13 | 83 | 1010.9 |
| 20260506205946 | 50 | 313 | 8.0 | 9.0 | 0.01 | 0.13 | 0.13 | 82 | 1010.8 |
| 20260506205446 | 50 | 284 | 5.0 | 10.0 | 0.01 | 0.13 | 0.13 | 83 | 1010.6 |
| 20260506204946 | 50 | 28 | 6.0 | 13.0 | 0.00 | 0.12 | 0.12 | 82 | 1010.5 |
| 20260506204446 | 51 | 329 | 5.0 | 12.0 | 0.00 | 0.12 | 0.12 | 83 | 1010.4 |
| 20260506203946 | 51 | 298 | 10.0 | 11.0 | 0.00 | 0.12 | 0.12 | 83 | 1010.4 |
| 20260506203447 | 51 | 341 | 9.0 | 12.0 | 0.00 | 0.12 | 0.12 | 82 | 1010.4 |
| 20260506202946 | 51 | 312 | 3.0 | 12.0 | 0.00 | 0.12 | 0.12 | 84 | 1010.5 |
| 20260506202446 | 51 | 293 | 6.0 | 10.0 | 0.00 | 0.12 | 0.12 | 83 | 1010.3 |
| 20260506201947 | 51 | 11 | 5.0 | 13.0 | 0.00 | 0.12 | 0.12 | 83 | 1010.4 |
| 20260506201446 | 51 | 309 | 7.0 | 11.0 | 0.00 | 0.12 | 0.12 | 84 | 1010.4 |
| 20260506200948 | 51 | 316 | 2.0 | 11.0 | 0.00 | 0.12 | 0.12 | 85 | 1010.5 |
| 20260506200448 | 52 | 333 | 6.0 | 10.0 | 0.00 | 0.12 | 0.12 | 86 | 1010.3 |
| 20260506195946 | 52 | 333 | 2.0 | 5.0 | 0.00 | 0.12 | 0.12 | 87 | 1010.4 |
| 20260506195447 | 52 | 312 | 3.0 | 8.0 | 0.00 | 0.12 | 0.12 | 87 | 1010.4 |
| 20260506194946 | 52 | 291 | 8.0 | 9.0 | 0.00 | 0.12 | 0.12 | 86 | 1010.4 |
| 20260506194446 | 51 | 282 | 5.0 | 12.0 | 0.00 | 0.12 | 0.12 | 86 | 1010.4 |
| 20260506193946 | 51 | 278 | 8.0 | 9.0 | 0.00 | 0.12 | 0.12 | 86 | 1010.3 |
| 20260506193446 | 52 | 277 | 6.0 | 12.0 | 0.00 | 0.12 | 0.12 | 87 | 1010.2 |
| 20260506192948 | 52 | 295 | 4.0 | 8.0 | 0.00 | 0.12 | 0.12 | 88 | 1010.2 |
| 20260506192446 | 52 | 315 | 2.0 | 10.0 | 0.00 | 0.12 | 0.12 | 88 | 1010.1 |
| 20260506191947 | 52 | 305 | 6.0 | 8.0 | 0.00 | 0.12 | 0.12 | 89 | 1010.1 |
| 20260506191447 | 52 | 296 | 5.0 | 7.0 | 0.00 | 0.12 | 0.12 | 88 | 1010.0 |
| 20260506190946 | 52 | 288 | 5.0 | 9.0 | 0.00 | 0.12 | 0.12 | 88 | 1010.0 |
| 20260506190446 | 52 | 289 | 7.0 | 9.0 | 0.00 | 0.12 | 0.12 | 89 | 1010.0 |
| 20260506185947 | 51 | 299 | 4.0 | 8.0 | 0.00 | 0.12 | 0.12 | 89 | 1010.0 |
| 20260506185447 | 52 | 284 | 3.0 | 11.0 | 0.00 | 0.12 | 0.12 | 90 | 1009.9 |
| 20260506184947 | 51 | 277 | 3.0 | 8.0 | 0.00 | 0.12 | 0.12 | 91 | 1009.8 |
| 20260506184447 | 51 | 279 | 3.0 | 8.0 | 0.00 | 0.12 | 0.12 | 91 | 1009.8 |
| 20260506183947 | 51 | 327 | 6.0 | 8.0 | 0.00 | 0.12 | 0.12 | 91 | 1009.8 |
| 20260506183447 | 51 | 278 | 3.0 | 7.0 | 0.01 | 0.12 | 0.12 | 91 | 1009.9 |
| 20260506182947 | 51 | 319 | 7.0 | 10.0 | 0.01 | 0.12 | 0.12 | 91 | 1009.9 |
| 20260506182447 | 51 | 326 | 7.0 | 8.0 | 0.01 | 0.12 | 0.12 | 92 | 1009.8 |
| 20260506181947 | 51 | 319 | 7.0 | 9.0 | 0.01 | 0.13 | 0.12 | 92 | 1009.6 |
| 20260506181449 | 51 | 288 | 5.0 | 11.0 | 0.01 | 0.13 | 0.12 | 91 | 1009.8 |
| 20260506180948 | 51 | 337 | 6.0 | 10.0 | 0.01 | 0.13 | 0.12 | 92 | 1009.6 |
| 20260506180447 | 51 | 281 | 4.0 | 9.0 | 0.01 | 0.13 | 0.12 | 93 | 1009.6 |
| 20260506175948 | 51 | 278 | 7.0 | 11.0 | 0.01 | 0.13 | 0.12 | 92 | 1009.6 |
| 20260506175447 | 51 | 324 | 5.0 | 7.0 | 0.01 | 0.13 | 0.12 | 94 | 1009.8 |
| 20260506174949 | 50 | 272 | 6.0 | 9.0 | 0.01 | 0.13 | 0.12 | 94 | 1009.6 |